createdAt,value
2017-11-09T00:02:17.495Z,101706.45
2017-11-09T00:04:55.001Z,101704.22
2017-11-09T00:07:25.524Z,101711.01
2017-11-09T00:10:11.098Z,101714.16
2017-11-09T00:12:46.121Z,101711.72
2017-11-09T00:15:40.436Z,101707.13
2017-11-09T00:18:11.189Z,101706.92
2017-11-09T00:20:42.197Z,101709.73
2017-11-09T00:23:18.760Z,101712.63
2017-11-09T00:25:49.305Z,101715.84
2017-11-09T00:28:19.606Z,101710.76
2017-11-09T00:30:52.412Z,101715.02
2017-11-09T00:33:23.248Z,101722.83
2017-11-09T00:35:54.173Z,101728.41
2017-11-09T00:38:26.703Z,101729.06
2017-11-09T00:40:58.523Z,101724.24
2017-11-09T00:43:29.253Z,101722.77
2017-11-09T00:46:00.569Z,101697.89
2017-11-09T00:48:32.058Z,101725.58
2017-11-09T00:51:10.468Z,101729.58
2017-11-09T00:53:40.702Z,101732.97
2017-11-09T00:56:11.503Z,101732.38
2017-11-09T00:58:48.251Z,101736.23
2017-11-09T01:01:24.511Z,101740.54
2017-11-09T01:04:04.243Z,101744.31
2017-11-09T01:06:36.409Z,101745.77
2017-11-09T01:09:07.337Z,101748.50
2017-11-09T01:11:37.659Z,101739.05
2017-11-09T01:14:07.862Z,101745.45
2017-11-09T01:16:39.633Z,101738.73
2017-11-09T01:19:10.430Z,101738.78
2017-11-09T01:21:48.257Z,101741.10
2017-11-09T01:24:19.675Z,101746.09
2017-11-09T01:26:51.416Z,101741.58
2017-11-09T01:29:22.398Z,101734.14
2017-11-09T01:31:54.148Z,101725.61
2017-11-09T01:34:24.492Z,101738.56
2017-11-09T01:36:56.011Z,101736.37
2017-11-09T01:39:27.189Z,101738.92
2017-11-09T01:41:58.867Z,101744.50
2017-11-09T01:44:29.036Z,101741.66
2017-11-09T01:47:13.099Z,101752.37
2017-11-09T01:49:43.467Z,101755.45
2017-11-09T01:52:18.621Z,101758.93
2017-11-09T01:54:52.133Z,101745.83
2017-11-09T01:57:23.515Z,101759.07
2017-11-09T01:59:54.322Z,101758.31
2017-11-09T02:04:25.633Z,101761.10
2017-11-09T02:06:56.585Z,101764.70
2017-11-09T02:09:28.591Z,101762.18
2017-11-09T02:12:00.357Z,101766.13
2017-11-09T02:23:47.368Z,101771.05
2017-11-09T02:26:18.542Z,101748.66
2017-11-09T02:28:57.789Z,101767.31
2017-11-09T02:31:46.743Z,101764.20
2017-11-09T02:34:35.673Z,101775.42
2017-11-09T02:37:09.261Z,101779.84
2017-11-09T02:39:41.179Z,101790.41
2017-11-09T02:42:12.654Z,101787.36
2017-11-09T02:44:43.901Z,101778.23
2017-11-09T02:47:15.867Z,101789.92
2017-11-09T02:49:49.105Z,101786.22
2017-11-09T02:52:21.777Z,101784.62
2017-11-09T02:54:58.566Z,101784.12
2017-11-09T02:57:29.390Z,101783.88
2017-11-09T02:59:59.697Z,101783.78
2017-11-09T03:02:31.842Z,101782.81
2017-11-09T03:05:03.141Z,101790.00
2017-11-09T03:07:35.128Z,101792.75
2017-11-09T03:10:06.825Z,101784.53
2017-11-09T03:12:42.147Z,101788.59
2017-11-09T03:15:17.050Z,101780.67
2017-11-09T03:17:51.157Z,101782.13
2017-11-09T03:20:29.964Z,101792.09
2017-11-09T03:23:02.475Z,101789.70
2017-11-09T03:25:33.202Z,101794.77
2017-11-09T03:28:04.034Z,101796.92
2017-11-09T03:30:38.929Z,101800.92
2017-11-09T03:33:10.091Z,101794.48
2017-11-09T03:35:40.851Z,101800.36
2017-11-09T03:38:11.331Z,101800.47
2017-11-09T03:40:42.326Z,101802.08
2017-11-09T03:49:45.698Z,101800.70
2017-11-09T03:52:17.698Z,101794.33
2017-11-09T03:54:48.466Z,101796.53
2017-11-09T03:57:27.438Z,101786.64
2017-11-09T04:00:21.763Z,101786.02
2017-11-09T04:08:35.840Z,101788.92
2017-11-09T04:11:16.244Z,101796.69
2017-11-09T04:13:53.269Z,101796.48
2017-11-09T04:16:25.082Z,101805.86
2017-11-09T04:18:56.889Z,101802.61
2017-11-09T04:21:27.523Z,101801.75
2017-11-09T04:23:57.958Z,101796.93
2017-11-09T04:26:29.174Z,101797.56
2017-11-09T04:28:59.682Z,101796.20
2017-11-09T04:31:31.425Z,101792.05
2017-11-09T04:34:03.774Z,101796.53
2017-11-09T04:36:35.688Z,101795.25
2017-11-09T04:39:06.613Z,101792.23
2017-11-09T04:41:43.831Z,101790.44
2017-11-09T04:44:25.776Z,101786.61
2017-11-09T04:46:57.175Z,101787.25
2017-11-09T04:49:29.269Z,101787.80
2017-11-09T04:51:59.585Z,101783.66
2017-11-09T04:54:35.157Z,101788.38
2017-11-09T04:57:07.315Z,101781.19
2017-11-09T05:03:04.195Z,101776.06
2017-11-09T05:07:47.571Z,101780.06
2017-11-09T05:10:26.054Z,101792.51
2017-11-09T05:13:02.603Z,101789.78
2017-11-09T05:15:39.405Z,101799.92
2017-11-09T05:18:10.529Z,101792.33
2017-11-09T05:20:41.650Z,101790.59
2017-11-09T05:23:20.872Z,101783.92
2017-11-09T05:26:06.217Z,101778.75
2017-11-09T05:28:39.636Z,101793.13
2017-11-09T05:31:10.051Z,101795.72
2017-11-09T05:33:42.152Z,101799.22
2017-11-09T05:36:22.531Z,101795.52
2017-11-09T05:38:55.542Z,101800.02
2017-11-09T05:41:26.367Z,101805.59
2017-11-09T05:43:57.744Z,101795.29
2017-11-09T05:46:28.318Z,101803.73
2017-11-09T05:49:00.729Z,101804.16
2017-11-09T05:51:33.875Z,101811.07
2017-11-09T05:54:15.504Z,101806.16
2017-11-09T05:56:46.753Z,101807.63
2017-11-09T05:59:17.723Z,101799.36
2017-11-09T06:01:48.425Z,101806.09
2017-11-09T06:04:23.240Z,101811.31
2017-11-09T06:06:53.576Z,101818.84
2017-11-09T06:09:28.924Z,101816.94
2017-11-09T06:11:59.347Z,101823.00
2017-11-09T06:14:31.352Z,101823.16
2017-11-09T06:17:01.942Z,101815.31
2017-11-09T06:19:32.752Z,101823.98
2017-11-09T06:22:06.654Z,101833.02
2017-11-09T06:24:41.175Z,101838.73
2017-11-09T06:27:21.818Z,101831.79
2017-11-09T06:29:53.159Z,101843.91
2017-11-09T06:32:23.773Z,101835.66
2017-11-09T06:34:54.720Z,101845.09
2017-11-09T06:37:42.090Z,101829.30
2017-11-09T06:40:25.254Z,101834.09
2017-11-09T06:42:56.509Z,101850.17
2017-11-09T06:45:27.626Z,101849.33
2017-11-09T06:47:58.260Z,101854.64
2017-11-09T06:50:30.577Z,101856.39
2017-11-09T06:53:01.348Z,101859.83
2017-11-09T06:55:32.158Z,101867.03
2017-11-09T06:58:05.780Z,101872.08
2017-11-09T07:00:36.812Z,101874.59
2017-11-09T07:03:07.437Z,101875.02
2017-11-09T07:05:41.834Z,101873.66
2017-11-09T09:33:17.596Z,101951.03
2017-11-09T09:35:59.593Z,101938.30
2017-11-09T09:38:45.579Z,101944.27
2017-11-09T09:41:22.184Z,101950.27
2017-11-09T09:43:55.035Z,101944.97
2017-11-09T09:46:28.692Z,101940.56
2017-11-09T09:52:21.996Z,101941.53
2017-11-09T09:54:54.959Z,101938.58
2017-11-09T09:57:31.567Z,101937.27
2017-11-09T10:00:08.380Z,101936.75
2017-11-09T10:02:41.854Z,101936.00
2017-11-09T10:05:13.366Z,101938.14
2017-11-09T10:07:47.343Z,101935.09
2017-11-09T10:10:20.374Z,101937.53
2017-11-09T10:15:52.571Z,101928.83
2017-11-09T10:18:26.555Z,101919.56
2017-11-09T10:21:04.611Z,101923.97
2017-11-09T10:26:29.601Z,101935.72
2017-11-09T10:29:04.652Z,101932.39
2017-11-09T10:31:38.358Z,101939.48
2017-11-09T10:34:10.896Z,101905.34
2017-11-09T10:39:33.953Z,101910.78
2017-11-09T10:42:07.545Z,101912.20
2017-11-09T10:44:55.062Z,101903.18
2017-11-09T10:47:28.439Z,101918.16
2017-11-09T10:50:04.560Z,101905.98
2017-11-09T11:05:44.458Z,101933.05
2017-11-09T11:08:23.278Z,101930.80
2017-11-09T11:11:00.595Z,101933.48
2017-11-09T11:16:31.367Z,101923.04
2017-11-09T11:19:05.165Z,101929.43
2017-11-09T11:21:40.261Z,101925.52
2017-11-09T11:24:22.762Z,101918.57
2017-11-09T11:27:01.219Z,101907.30
2017-11-09T11:29:32.973Z,101902.39
2017-11-09T11:35:09.661Z,101823.05
2017-11-09T11:37:43.379Z,101880.38
2017-11-09T11:40:19.869Z,101906.06
2017-11-09T11:43:00.468Z,101902.51
2017-11-09T11:45:34.972Z,101857.67
2017-11-09T11:48:12.698Z,101890.70
2017-11-09T11:53:28.265Z,101890.16
2017-11-09T11:56:00.165Z,101886.12
2017-11-09T11:58:36.070Z,101882.88
2017-11-09T12:01:11.392Z,101893.52
2017-11-09T12:04:00.019Z,101891.55
2017-11-09T12:06:33.856Z,101890.41
2017-11-09T12:09:08.626Z,101877.52
2017-11-09T12:12:03.999Z,101887.26
2017-11-09T12:14:35.612Z,101874.86
2017-11-09T12:17:10.556Z,101850.48
2017-11-09T12:24:41.585Z,101875.11
2017-11-09T12:27:12.968Z,101874.48
2017-11-09T12:29:48.642Z,101864.31
2017-11-09T12:32:25.461Z,101883.10
2017-11-09T12:34:58.770Z,101868.61
2017-11-09T12:37:32.362Z,101866.03
2017-11-09T12:40:16.414Z,101862.55
2017-11-09T12:45:29.166Z,101869.75
2017-11-09T12:48:03.036Z,101864.31
2017-11-09T12:50:35.637Z,101866.14
2017-11-09T12:53:07.750Z,101870.48
2017-11-09T12:58:30.667Z,101877.05
2017-11-09T13:01:03.360Z,101878.55
2017-11-09T13:03:35.549Z,101873.35
2017-11-09T13:06:09.462Z,101868.86
2017-11-09T13:08:44.275Z,101875.38
2017-11-09T13:11:26.977Z,101865.56
2017-11-09T13:14:06.711Z,101851.44
2017-11-09T13:16:46.681Z,101858.34
2017-11-09T13:19:29.485Z,101860.80
2017-11-09T13:22:03.531Z,101853.85
2017-11-09T13:24:47.950Z,101867.32
2017-11-09T13:27:21.476Z,101874.58
2017-11-09T13:29:53.776Z,101870.14
2017-11-09T13:32:43.481Z,101877.05
2017-11-09T13:37:52.247Z,101885.56
2017-11-09T13:40:31.252Z,101877.58
2017-11-09T13:48:38.543Z,101871.92
2017-11-09T13:51:11.892Z,101880.20
2017-11-09T13:53:45.597Z,101880.14
2017-11-09T13:56:27.468Z,101883.12
2017-11-09T13:59:00.241Z,101882.80
2017-11-09T14:01:33.955Z,101894.36
2017-11-09T14:04:06.440Z,101871.52
2017-11-09T14:06:39.254Z,101869.77
2017-11-09T14:09:23.970Z,101871.65
2017-11-09T14:11:55.475Z,101894.13
2017-11-09T14:14:26.668Z,101901.33
2017-11-09T14:17:15.774Z,101900.59
2017-11-09T14:19:47.513Z,101909.70
2017-11-09T14:25:05.992Z,101877.90
2017-11-09T14:27:58.526Z,101884.15
2017-11-09T14:30:35.219Z,101876.25
2017-11-09T14:33:26.956Z,101874.31
2017-11-09T14:38:58.555Z,101856.65
2017-11-09T14:41:35.661Z,101880.29
2017-11-09T14:44:08.952Z,101875.67
2017-11-09T14:46:48.368Z,101880.05
2017-11-09T14:49:32.095Z,101891.87
2017-11-09T14:52:11.404Z,101885.50
2017-11-09T14:54:44.149Z,101875.48
2017-11-09T14:57:26.286Z,101882.16
